createdAt,value
2022-11-13T00:00:38.949Z,10.60
2022-11-13T00:02:01.045Z,10.60
2022-11-13T00:03:23.210Z,10.60
2022-11-13T00:04:44.068Z,10.50
2022-11-13T00:06:09.761Z,10.60
2022-11-13T00:07:32.251Z,10.60
2022-11-13T00:08:56.280Z,10.60
2022-11-13T00:10:17.776Z,10.60
2022-11-13T00:11:40.137Z,10.60
2022-11-13T00:13:11.338Z,10.50
2022-11-13T00:14:37.704Z,10.50
2022-11-13T00:16:02.292Z,10.40
2022-11-13T00:17:24.310Z,10.10
2022-11-13T00:18:48.022Z,10.20
2022-11-13T00:20:15.223Z,10.20
2022-11-13T00:21:36.356Z,10.30
2022-11-13T00:22:58.241Z,10.20
2022-11-13T00:24:20.190Z,10.30
2022-11-13T00:25:45.604Z,10.20
2022-11-13T00:27:07.256Z,10.30
2022-11-13T00:28:28.206Z,10.30
2022-11-13T00:29:50.378Z,10.30
2022-11-13T00:31:16.146Z,10.40
2022-11-13T00:32:40.131Z,10.30
2022-11-13T00:35:44.761Z,10.40
2022-11-13T00:37:11.146Z,10.40
2022-11-13T00:38:32.373Z,10.40
2022-11-13T00:39:59.382Z,10.40
2022-11-13T00:41:22.172Z,10.40
2022-11-13T00:42:48.894Z,10.40
2022-11-13T00:44:11.329Z,10.40
2022-11-13T00:45:32.369Z,10.40
2022-11-13T00:46:55.600Z,10.40
2022-11-13T00:48:21.873Z,10.40
2022-11-13T00:49:48.403Z,10.40
2022-11-13T00:51:11.041Z,10.40
2022-11-13T00:52:32.962Z,10.40
2022-11-13T00:53:59.408Z,10.40
2022-11-13T00:55:20.105Z,10.50
2022-11-13T00:56:42.555Z,10.40
2022-11-13T00:58:05.458Z,10.40
2022-11-13T00:59:27.499Z,11.50
2022-11-13T01:00:49.368Z,10.40
2022-11-13T01:02:15.590Z,10.40
2022-11-13T01:03:38.244Z,10.40
2022-11-13T01:05:00.664Z,10.40
2022-11-13T01:06:25.100Z,10.40
2022-11-13T01:07:45.931Z,10.30
2022-11-13T01:09:07.896Z,10.30
2022-11-13T01:10:35.764Z,10.40
2022-11-13T01:11:56.958Z,10.30
2022-11-13T01:13:19.112Z,10.30
2022-11-13T01:14:41.516Z,10.30
2022-11-13T01:16:07.301Z,10.30
2022-11-13T01:17:31.019Z,10.30
2022-11-13T01:18:55.240Z,10.30
2022-11-13T01:20:17.817Z,10.30
2022-11-13T01:21:40.323Z,10.40
2022-11-13T01:23:02.184Z,10.40
2022-11-13T01:24:24.002Z,11.20
2022-11-13T01:25:45.147Z,10.40
2022-11-13T01:27:07.624Z,10.40
2022-11-13T01:28:29.613Z,10.40
2022-11-13T01:29:51.696Z,10.40
2022-11-13T01:31:16.735Z,10.40
2022-11-13T01:32:39.364Z,10.40
2022-11-13T01:34:01.141Z,10.50
2022-11-13T01:35:26.189Z,10.50
2022-11-13T01:36:50.874Z,10.50
2022-11-13T01:38:17.715Z,10.50
2022-11-13T01:39:39.862Z,10.50
2022-11-13T01:41:01.601Z,10.50
2022-11-13T01:42:33.939Z,10.60
2022-11-13T01:43:57.689Z,10.60
2022-11-13T01:46:03.640Z,10.50
2022-11-13T01:47:26.191Z,10.60
2022-11-13T01:48:55.126Z,10.60
2022-11-13T01:50:17.137Z,10.60
2022-11-13T01:51:43.895Z,10.60
2022-11-13T01:53:06.237Z,10.50
2022-11-13T01:54:31.732Z,10.50
2022-11-13T01:55:55.170Z,10.40
2022-11-13T01:57:18.678Z,10.30
2022-11-13T01:58:43.227Z,10.40
2022-11-13T02:00:08.740Z,10.40
2022-11-13T02:01:39.980Z,10.50
2022-11-13T02:03:01.712Z,10.50
2022-11-13T02:04:24.783Z,10.50
2022-11-13T02:05:46.462Z,10.50
2022-11-13T02:07:11.258Z,10.50
2022-11-13T02:08:32.744Z,10.50
2022-11-13T02:09:58.357Z,10.50
2022-11-13T02:11:22.198Z,10.50
2022-11-13T02:12:47.868Z,10.50
2022-11-13T02:14:09.974Z,10.50
2022-11-13T02:15:36.590Z,10.50
2022-11-13T02:17:04.164Z,10.60
2022-11-13T02:18:27.966Z,10.60
2022-11-13T02:19:55.584Z,10.60
2022-11-13T02:21:35.176Z,10.60
2022-11-13T02:23:10.485Z,10.60
2022-11-13T02:24:42.149Z,10.60
2022-11-13T02:26:09.072Z,10.60
2022-11-13T02:27:37.512Z,10.60
2022-11-13T02:29:04.837Z,9.50
2022-11-13T02:30:28.004Z,10.60
2022-11-13T02:31:50.419Z,10.70
2022-11-13T02:33:25.087Z,10.60
2022-11-13T02:34:56.762Z,10.60
2022-11-13T02:36:24.360Z,10.60
2022-11-13T02:37:45.416Z,10.60
2022-11-13T02:39:10.417Z,10.60
2022-11-13T02:40:34.379Z,10.60
2022-11-13T02:41:56.848Z,10.60
2022-11-13T02:43:17.826Z,10.60
2022-11-13T02:44:39.775Z,10.60
2022-11-13T02:46:00.978Z,10.30
2022-11-13T02:47:23.476Z,10.50
2022-11-13T02:48:44.645Z,10.50
2022-11-13T02:50:08.579Z,10.50
2022-11-13T02:51:31.128Z,10.50
2022-11-13T02:52:56.580Z,10.50
2022-11-13T02:54:18.896Z,10.60
2022-11-13T02:55:41.690Z,10.60
2022-11-13T02:57:08.385Z,10.60
2022-11-13T02:58:30.885Z,10.60
2022-11-13T02:59:53.688Z,10.50
2022-11-13T03:01:14.816Z,10.50
2022-11-13T03:02:36.811Z,10.60
2022-11-13T03:03:59.012Z,10.50
2022-11-13T03:05:24.980Z,10.50
2022-11-13T03:06:47.079Z,11.70
2022-11-13T03:08:14.365Z,10.50
2022-11-13T03:09:35.836Z,10.60
2022-11-13T03:10:59.628Z,10.50
2022-11-13T03:12:20.912Z,9.50
2022-11-13T03:13:43.266Z,10.60
2022-11-13T03:15:08.029Z,10.20
2022-11-13T03:16:30.060Z,10.50
2022-11-13T03:17:52.480Z,10.60
2022-11-13T03:19:14.099Z,10.60
2022-11-13T03:20:38.373Z,10.60
2022-11-13T03:22:00.802Z,10.60
2022-11-13T03:23:25.717Z,10.60
2022-11-13T03:24:48.134Z,10.60
2022-11-13T03:26:14.036Z,10.60
2022-11-13T03:27:36.594Z,10.60
2022-11-13T03:28:58.498Z,10.70
2022-11-13T03:31:13.101Z,10.60
2022-11-13T03:32:37.254Z,10.60
2022-11-13T03:33:59.553Z,10.60
2022-11-13T03:35:21.862Z,10.50
2022-11-13T03:36:44.280Z,10.60
2022-11-13T03:38:06.240Z,10.60
2022-11-13T03:39:28.737Z,10.50
2022-11-13T03:40:51.350Z,10.50
2022-11-13T03:42:14.868Z,10.50
2022-11-13T03:43:37.395Z,10.40
2022-11-13T03:44:59.326Z,10.40
2022-11-13T03:46:21.248Z,10.50
2022-11-13T03:47:43.564Z,10.50
2022-11-13T03:49:06.318Z,10.50
2022-11-13T03:50:28.673Z,10.50
2022-11-13T03:51:49.635Z,10.40
2022-11-13T03:53:13.823Z,10.40
2022-11-13T03:54:35.044Z,10.50
2022-11-13T03:55:57.245Z,10.50
2022-11-13T03:57:20.192Z,10.50
2022-11-13T03:58:45.806Z,10.40
2022-11-13T04:00:11.891Z,10.40
2022-11-13T04:01:33.979Z,10.40
2022-11-13T04:02:55.041Z,10.50
2022-11-13T04:04:17.603Z,10.50
2022-11-13T04:05:39.190Z,10.50
2022-11-13T04:07:01.444Z,10.40
2022-11-13T04:08:22.435Z,10.40
2022-11-13T04:09:45.058Z,10.40
2022-11-13T04:11:08.918Z,10.40
2022-11-13T04:12:32.606Z,10.40
2022-11-13T04:13:53.909Z,10.40
2022-11-13T04:15:16.344Z,10.40
2022-11-13T04:16:43.677Z,10.30
2022-11-13T04:18:06.256Z,10.30
2022-11-13T04:19:29.388Z,10.40
2022-11-13T04:20:51.797Z,10.40
2022-11-13T04:22:14.651Z,10.40
2022-11-13T04:23:36.043Z,10.40
2022-11-13T04:24:57.964Z,10.40
2022-11-13T04:26:20.297Z,10.50
2022-11-13T04:27:44.673Z,10.40
2022-11-13T04:29:07.105Z,10.40
2022-11-13T04:30:28.306Z,10.40
2022-11-13T04:31:51.351Z,9.70
2022-11-13T04:33:16.813Z,10.40
2022-11-13T04:34:38.707Z,10.20
2022-11-13T04:35:59.998Z,10.20
2022-11-13T04:37:22.120Z,10.20
2022-11-13T04:38:43.053Z,10.10
2022-11-13T04:40:05.961Z,10.10
2022-11-13T04:41:45.597Z,10.20
2022-11-13T04:43:08.469Z,10.10
2022-11-13T04:44:30.740Z,10.20
2022-11-13T04:45:53.094Z,10.20
2022-11-13T04:47:15.420Z,10.20
2022-11-13T04:48:36.280Z,10.20
2022-11-13T04:49:58.136Z,10.20
2022-11-13T04:51:22.630Z,10.30
2022-11-13T04:52:45.975Z,10.30
2022-11-13T04:54:07.075Z,10.40
2022-11-13T04:55:29.415Z,10.40
2022-11-13T04:56:50.381Z,10.30
2022-11-13T04:58:13.795Z,10.30
2022-11-13T04:59:34.668Z,10.40
2022-11-13T05:01:01.710Z,10.30
2022-11-13T05:02:24.557Z,10.40
2022-11-13T05:03:46.883Z,10.40
2022-11-13T05:05:09.720Z,10.40
2022-11-13T05:06:31.174Z,10.40
2022-11-13T05:07:54.118Z,10.30
2022-11-13T05:09:15.909Z,9.50
2022-11-13T05:10:38.161Z,10.40
2022-11-13T05:12:00.288Z,10.30
2022-11-13T05:13:22.851Z,10.30
2022-11-13T05:14:45.234Z,10.30
2022-11-13T05:16:10.715Z,10.30
2022-11-13T05:17:31.407Z,10.30
2022-11-13T05:18:57.736Z,10.30
2022-11-13T05:20:28.395Z,10.30
2022-11-13T05:21:55.056Z,10.30
2022-11-13T05:23:16.636Z,10.30
2022-11-13T05:24:38.878Z,10.30
2022-11-13T05:26:04.566Z,10.40
2022-11-13T05:27:26.719Z,10.30
2022-11-13T05:28:49.142Z,10.30
2022-11-13T05:30:11.803Z,10.30
2022-11-13T05:31:34.078Z,10.20
2022-11-13T05:32:55.023Z,10.20
2022-11-13T05:34:17.041Z,10.20
2022-11-13T05:35:38.097Z,10.30
2022-11-13T05:37:00.256Z,10.30
2022-11-13T05:38:26.969Z,10.30
2022-11-13T05:39:49.227Z,10.30
2022-11-13T05:41:12.737Z,10.30
2022-11-13T05:42:34.793Z,10.30
2022-11-13T05:43:59.601Z,10.30
2022-11-13T05:45:21.829Z,10.30
2022-11-13T05:46:43.649Z,10.30
2022-11-13T05:48:10.321Z,10.30
2022-11-13T05:49:32.564Z,10.30
2022-11-13T05:50:55.669Z,10.10
2022-11-13T05:52:20.529Z,10.20
2022-11-13T05:53:44.522Z,10.20
2022-11-13T05:55:08.157Z,10.20
2022-11-13T05:56:32.294Z,10.30
2022-11-13T05:57:54.256Z,10.20
2022-11-13T05:59:17.683Z,10.20
2022-11-13T06:00:39.087Z,10.30
2022-11-13T06:02:01.031Z,10.30
2022-11-13T06:03:22.094Z,10.30
2022-11-13T06:04:44.365Z,10.30
2022-11-13T06:06:06.364Z,10.30
2022-11-13T06:07:28.170Z,10.30
2022-11-13T06:08:50.138Z,11.00
2022-11-13T06:10:13.291Z,9.20
2022-11-13T06:11:40.442Z,10.40
2022-11-13T06:13:01.542Z,10.40
2022-11-13T06:14:24.701Z,9.90
2022-11-13T06:15:47.010Z,10.40
2022-11-13T06:17:09.461Z,10.40
2022-11-13T06:18:31.287Z,10.40
2022-11-13T06:19:53.692Z,10.40
2022-11-13T06:21:18.700Z,10.40
2022-11-13T06:22:41.067Z,10.40
2022-11-13T06:24:02.939Z,10.40
2022-11-13T06:25:24.557Z,10.40
2022-11-13T06:26:45.576Z,10.40
2022-11-13T06:28:08.288Z,10.40
2022-11-13T06:29:31.679Z,10.40
2022-11-13T06:30:53.725Z,10.40
2022-11-13T06:32:15.505Z,10.40
2022-11-13T06:33:38.179Z,10.40
2022-11-13T06:35:00.346Z,10.30
2022-11-13T06:36:22.992Z,11.70
2022-11-13T06:37:45.100Z,10.30
2022-11-13T06:39:09.733Z,10.30
2022-11-13T06:40:32.217Z,10.30
2022-11-13T06:41:54.272Z,10.40
2022-11-13T06:43:15.047Z,10.40
2022-11-13T06:44:38.740Z,10.40
2022-11-13T06:46:04.123Z,10.30
2022-11-13T06:47:26.157Z,10.40
2022-11-13T06:48:47.821Z,10.40
2022-11-13T06:50:11.788Z,10.40
2022-11-13T06:51:34.046Z,10.40
2022-11-13T06:52:55.603Z,10.40
2022-11-13T06:54:17.980Z,10.40
2022-11-13T06:55:44.537Z,10.40
2022-11-13T06:57:06.352Z,10.40
2022-11-13T06:58:28.372Z,9.40
2022-11-13T06:59:51.815Z,9.20
2022-11-13T07:01:16.639Z,10.40
2022-11-13T07:02:38.519Z,10.40
2022-11-13T07:04:00.761Z,10.50
2022-11-13T07:05:27.279Z,10.50
2022-11-13T07:06:49.440Z,10.60
2022-11-13T07:08:11.483Z,10.60
2022-11-13T07:09:34.913Z,10.50
2022-11-13T07:10:58.051Z,10.60
2022-11-13T07:12:24.478Z,10.60
2022-11-13T07:13:46.822Z,10.60
2022-11-13T07:15:13.324Z,10.60
2022-11-13T07:16:56.207Z,10.60
2022-11-13T07:18:24.101Z,10.60
2022-11-13T07:19:46.107Z,10.70
2022-11-13T07:21:10.184Z,11.70
2022-11-13T07:22:32.445Z,10.70
2022-11-13T07:23:54.654Z,10.70
2022-11-13T07:25:15.865Z,10.70
2022-11-13T07:26:37.753Z,10.70
2022-11-13T07:28:00.112Z,10.60
2022-11-13T07:29:22.750Z,10.10
2022-11-13T07:30:46.320Z,10.70
2022-11-13T07:32:08.230Z,10.60
2022-11-13T07:33:29.931Z,10.60
2022-11-13T07:34:51.854Z,10.60
2022-11-13T07:36:13.987Z,10.60
2022-11-13T07:37:35.065Z,10.60
2022-11-13T07:39:00.194Z,10.60
2022-11-13T07:40:22.915Z,10.60
2022-11-13T07:41:44.865Z,10.50
2022-11-13T07:43:07.041Z,10.60
2022-11-13T07:44:52.831Z,10.60
2022-11-13T07:46:17.003Z,10.50
2022-11-13T07:47:38.842Z,10.50
2022-11-13T07:49:00.951Z,10.50
2022-11-13T07:50:23.388Z,10.50
2022-11-13T07:51:45.821Z,10.50
2022-11-13T07:53:08.843Z,10.50
2022-11-13T07:54:30.995Z,10.40
2022-11-13T07:55:53.428Z,10.40
2022-11-13T07:57:16.127Z,10.40
2022-11-13T07:58:38.421Z,10.50
2022-11-13T08:00:00.429Z,10.40
2022-11-13T08:01:24.049Z,10.30
2022-11-13T08:02:47.841Z,10.40
2022-11-13T08:04:09.490Z,10.40
2022-11-13T08:05:32.111Z,10.50
2022-11-13T08:06:54.321Z,9.50
2022-11-13T08:08:16.940Z,10.50
2022-11-13T08:09:38.909Z,10.50
2022-11-13T08:11:04.307Z,11.80
2022-11-13T08:12:26.537Z,10.50
2022-11-13T08:13:49.033Z,10.50
2022-11-13T08:15:13.580Z,10.50
2022-11-13T08:16:37.588Z,10.50
2022-11-13T08:18:02.577Z,10.50
2022-11-13T08:19:24.924Z,10.60
2022-11-13T08:20:47.276Z,10.50
2022-11-13T08:22:08.699Z,10.50
2022-11-13T08:23:30.607Z,10.50
2022-11-13T08:24:53.773Z,11.10
2022-11-13T08:26:15.756Z,10.40
2022-11-13T08:27:39.437Z,10.40
2022-11-13T08:29:02.460Z,10.50
2022-11-13T08:30:26.062Z,10.50
2022-11-13T08:31:49.843Z,10.50
2022-11-13T08:33:12.419Z,10.50
2022-11-13T08:34:34.392Z,10.60
2022-11-13T08:35:57.891Z,10.60
2022-11-13T08:37:23.582Z,10.60
2022-11-13T08:38:49.418Z,10.60
2022-11-13T08:40:12.700Z,10.60
2022-11-13T08:41:35.355Z,10.70
2022-11-13T08:43:00.971Z,10.70
2022-11-13T08:44:22.961Z,10.70
2022-11-13T08:45:47.614Z,10.60
2022-11-13T08:47:11.135Z,10.60
2022-11-13T08:48:33.194Z,10.60
2022-11-13T08:49:55.477Z,10.60
2022-11-13T08:51:18.482Z,10.60
2022-11-13T08:52:40.693Z,10.60
2022-11-13T08:54:02.653Z,10.60
2022-11-13T08:55:25.167Z,10.50
2022-11-13T08:56:56.549Z,10.60
2022-11-13T08:58:20.506Z,10.40
2022-11-13T08:59:41.423Z,10.60
2022-11-13T09:01:04.720Z,10.60
2022-11-13T09:02:28.586Z,10.60
2022-11-13T09:03:54.388Z,10.80
2022-11-13T09:05:16.316Z,11.10
2022-11-13T09:06:38.328Z,11.20
2022-11-13T09:08:02.699Z,11.20
2022-11-13T09:09:24.766Z,11.70
2022-11-13T09:10:46.661Z,11.40
2022-11-13T09:12:10.723Z,11.60
2022-11-13T09:13:33.144Z,11.60
2022-11-13T09:14:55.400Z,10.80
2022-11-13T09:16:17.671Z,12.80
2022-11-13T09:17:41.586Z,11.90
2022-11-13T09:19:04.536Z,12.00
2022-11-13T09:20:27.214Z,12.00
2022-11-13T09:21:49.030Z,12.00
2022-11-13T09:23:11.360Z,12.00
2022-11-13T09:24:37.493Z,11.90
2022-11-13T09:26:03.841Z,12.00
2022-11-13T09:27:25.897Z,11.90
2022-11-13T09:28:48.170Z,11.80
2022-11-13T09:30:11.739Z,11.80
2022-11-13T09:31:36.294Z,11.70
2022-11-13T09:33:01.566Z,11.60
2022-11-13T09:34:24.472Z,11.60
2022-11-13T09:35:50.832Z,11.50
2022-11-13T09:37:15.608Z,12.00
2022-11-13T09:38:37.331Z,11.50
2022-11-13T09:39:59.477Z,10.80
2022-11-13T09:41:24.036Z,11.50
2022-11-13T09:42:46.513Z,11.50
2022-11-13T09:44:17.206Z,11.60
2022-11-13T09:45:42.548Z,11.60
2022-11-13T09:47:12.742Z,11.60
2022-11-13T09:48:44.099Z,11.60
2022-11-13T09:50:18.271Z,11.50
2022-11-13T09:51:40.799Z,11.50
2022-11-13T09:53:04.792Z,11.40
2022-11-13T09:54:27.311Z,11.40
2022-11-13T09:55:59.002Z,11.30
2022-11-13T09:57:31.105Z,11.30
2022-11-13T09:59:02.799Z,11.30
2022-11-13T10:00:25.406Z,11.20
2022-11-13T10:01:59.706Z,11.20
2022-11-13T10:05:29.952Z,11.20
2022-11-13T10:07:06.376Z,11.10
2022-11-13T10:08:32.100Z,11.10
2022-11-13T10:10:18.216Z,11.10
2022-11-13T10:11:47.423Z,11.10
2022-11-13T10:13:19.131Z,11.00
2022-11-13T10:14:46.164Z,11.00
2022-11-13T10:16:22.144Z,11.00
2022-11-13T10:17:51.574Z,11.20
2022-11-13T10:19:20.433Z,11.10
2022-11-13T10:20:50.629Z,11.00
2022-11-13T10:22:37.053Z,11.10
2022-11-13T10:24:02.625Z,11.10
2022-11-13T10:25:30.227Z,11.10
2022-11-13T10:26:51.455Z,11.20
2022-11-13T10:30:04.051Z,11.40
2022-11-13T10:31:42.522Z,11.50
2022-11-13T10:33:08.837Z,11.70
2022-11-13T10:34:33.432Z,11.70
2022-11-13T10:36:06.049Z,12.20
2022-11-13T10:37:46.394Z,11.90
2022-11-13T10:39:11.843Z,11.90
2022-11-13T10:40:39.719Z,11.90
2022-11-13T10:42:01.756Z,12.00
2022-11-13T10:43:34.209Z,12.00
2022-11-13T10:44:58.989Z,12.00
2022-11-13T10:46:23.460Z,12.00
2022-11-13T10:48:03.632Z,11.90
2022-11-13T10:49:30.164Z,12.00
2022-11-13T10:51:03.697Z,11.90
2022-11-13T10:52:27.973Z,11.90
2022-11-13T10:53:50.502Z,11.30
2022-11-13T10:55:26.857Z,12.00
2022-11-13T10:57:03.432Z,12.10
2022-11-13T10:58:26.252Z,12.10
2022-11-13T10:59:50.803Z,12.20
2022-11-13T11:01:17.389Z,12.30
2022-11-13T11:02:51.107Z,12.40
2022-11-13T11:04:24.912Z,12.40
2022-11-13T11:05:58.130Z,12.40
2022-11-13T11:07:25.387Z,12.40
2022-11-13T11:08:52.358Z,12.50
2022-11-13T11:10:24.983Z,12.50
2022-11-13T11:12:18.752Z,12.50
2022-11-13T11:13:43.043Z,12.50
2022-11-13T11:15:25.156Z,12.50
2022-11-13T11:16:52.694Z,12.50
2022-11-13T11:18:31.933Z,12.50
2022-11-13T11:20:09.264Z,12.50
2022-11-13T11:21:37.739Z,12.50
2022-11-13T11:23:09.201Z,12.40
2022-11-13T11:24:37.690Z,12.30
2022-11-13T11:26:04.717Z,12.30
2022-11-13T11:27:34.790Z,12.30
2022-11-13T11:29:09.523Z,12.30
2022-11-13T11:30:41.385Z,11.40
2022-11-13T11:32:11.895Z,12.40
2022-11-13T11:33:38.670Z,12.40
2022-11-13T11:35:09.617Z,12.30
2022-11-13T11:36:36.119Z,12.30
2022-11-13T11:38:14.455Z,12.30
2022-11-13T11:39:44.827Z,12.30
2022-11-13T11:41:16.283Z,12.30
2022-11-13T11:42:47.127Z,12.20
2022-11-13T11:44:24.456Z,12.20
2022-11-13T11:45:58.621Z,12.20
2022-11-13T11:47:21.538Z,12.20
2022-11-13T11:48:44.092Z,12.20
2022-11-13T11:50:15.663Z,12.30
2022-11-13T11:51:50.444Z,12.30
2022-11-13T11:53:21.595Z,12.20
2022-11-13T11:54:49.772Z,12.30
2022-11-13T11:56:23.904Z,12.30
2022-11-13T11:57:58.860Z,12.20
2022-11-13T11:59:54.475Z,12.20
2022-11-13T12:01:29.432Z,12.20
2022-11-13T12:03:50.951Z,12.20
2022-11-13T12:05:25.127Z,12.30
2022-11-13T12:07:02.336Z,12.10
2022-11-13T12:08:37.565Z,12.10
2022-11-13T12:10:10.567Z,12.10
2022-11-13T12:11:38.133Z,12.00
2022-11-13T12:13:19.850Z,12.10
2022-11-13T12:14:54.903Z,12.10
2022-11-13T12:16:29.146Z,12.10
2022-11-13T12:18:03.317Z,12.10
2022-11-13T12:19:40.951Z,12.10
2022-11-13T12:21:18.214Z,12.10
2022-11-13T12:22:54.177Z,12.10
2022-11-13T12:24:52.807Z,12.10
2022-11-13T12:26:26.193Z,12.10
2022-11-13T12:28:00.695Z,12.10
2022-11-13T12:29:41.421Z,12.10
2022-11-13T12:31:16.050Z,12.10
2022-11-13T12:32:58.913Z,12.10
2022-11-13T12:34:31.404Z,12.10
2022-11-13T12:35:55.865Z,12.20
2022-11-13T12:37:32.048Z,12.10
2022-11-13T12:39:07.597Z,12.20
2022-11-13T12:40:44.003Z,12.20
2022-11-13T12:42:17.785Z,12.20
2022-11-13T12:44:07.727Z,12.20
2022-11-13T12:45:47.835Z,12.10
2022-11-13T12:47:11.886Z,12.20
2022-11-13T12:48:36.917Z,12.20
2022-11-13T12:50:06.211Z,12.20
2022-11-13T12:51:40.349Z,12.20
2022-11-13T12:53:06.458Z,12.20
2022-11-13T12:54:30.964Z,12.20
2022-11-13T12:56:00.475Z,12.20
2022-11-13T12:57:30.114Z,12.20
2022-11-13T12:59:28.500Z,12.20
2022-11-13T13:00:54.662Z,12.10
2022-11-13T13:02:52.360Z,12.10
2022-11-13T13:04:41.422Z,11.70
2022-11-13T13:06:23.303Z,12.10
2022-11-13T13:08:10.264Z,12.10
2022-11-13T13:09:48.409Z,12.10
2022-11-13T13:11:26.690Z,12.10
2022-11-13T13:13:01.068Z,12.10
2022-11-13T13:14:36.165Z,12.00
2022-11-13T13:16:02.957Z,12.00
2022-11-13T13:17:25.945Z,12.00
2022-11-13T13:18:47.924Z,12.00
2022-11-13T13:20:32.701Z,12.00
2022-11-13T13:21:54.747Z,11.00
2022-11-13T13:23:28.665Z,11.90
2022-11-13T13:25:00.977Z,11.90
2022-11-13T13:26:27.084Z,11.90
2022-11-13T13:27:58.709Z,11.80
2022-11-13T13:29:24.982Z,11.80
2022-11-13T13:30:58.165Z,11.80
2022-11-13T13:32:27.553Z,11.80
2022-11-13T13:34:01.714Z,11.80
2022-11-13T13:35:31.008Z,11.70
2022-11-13T13:37:00.245Z,11.70
2022-11-13T13:38:30.768Z,11.70
2022-11-13T13:40:09.948Z,11.70
2022-11-13T13:41:50.568Z,11.60
2022-11-13T13:43:33.836Z,11.60
2022-11-13T13:45:12.895Z,11.60
2022-11-13T13:46:36.660Z,11.60
2022-11-13T13:48:01.529Z,11.60
2022-11-13T13:49:25.498Z,10.90
2022-11-13T13:50:51.127Z,11.60
2022-11-13T13:52:16.970Z,11.60
2022-11-13T13:53:40.226Z,11.60
2022-11-13T13:55:05.083Z,11.60
2022-11-13T13:56:28.471Z,11.60
2022-11-13T13:57:51.924Z,11.60
2022-11-13T13:59:20.600Z,11.60
2022-11-13T14:01:05.091Z,11.60
2022-11-13T14:02:26.648Z,11.60
2022-11-13T14:03:48.777Z,11.60
2022-11-13T14:05:26.576Z,11.50
2022-11-13T14:06:52.435Z,11.50
2022-11-13T14:08:18.997Z,11.50
2022-11-13T14:09:40.926Z,11.50
2022-11-13T14:11:05.348Z,11.40
2022-11-13T14:12:27.165Z,11.40
2022-11-13T14:13:50.982Z,11.40
2022-11-13T14:15:30.040Z,11.40
2022-11-13T14:16:54.245Z,11.30
2022-11-13T14:18:19.359Z,11.30
2022-11-13T14:19:41.864Z,11.50
2022-11-13T14:21:11.051Z,11.50
2022-11-13T14:22:34.810Z,11.50
2022-11-13T14:23:57.822Z,11.50
2022-11-13T14:25:25.489Z,11.50
2022-11-13T14:26:47.372Z,11.40
2022-11-13T14:28:17.242Z,11.40
2022-11-13T14:29:47.832Z,11.40
2022-11-13T14:31:16.585Z,11.40
2022-11-13T14:32:47.113Z,11.30
2022-11-13T14:34:17.165Z,11.40
2022-11-13T14:35:42.156Z,11.30
2022-11-13T14:37:27.997Z,11.30
2022-11-13T14:38:52.304Z,11.30
2022-11-13T14:40:23.588Z,11.30
2022-11-13T14:41:53.347Z,11.30
2022-11-13T14:43:22.466Z,11.30
2022-11-13T14:44:46.629Z,11.30
2022-11-13T14:46:31.741Z,11.30
2022-11-13T14:48:02.364Z,11.30
2022-11-13T14:49:30.055Z,11.30
2022-11-13T14:50:54.605Z,11.90
2022-11-13T14:52:23.447Z,11.30
2022-11-13T14:53:46.172Z,11.20
2022-11-13T14:55:22.394Z,11.20
2022-11-13T14:56:47.214Z,11.20
2022-11-13T14:58:13.640Z,11.20
2022-11-13T14:59:35.666Z,10.40
2022-11-13T15:00:59.841Z,10.20
2022-11-13T15:02:22.047Z,11.20
2022-11-13T15:03:45.011Z,11.20
2022-11-13T15:05:09.385Z,11.20
2022-11-13T15:06:41.226Z,9.70
2022-11-13T15:08:04.858Z,11.20
2022-11-13T15:09:28.210Z,11.20
2022-11-13T15:10:50.916Z,11.20
2022-11-13T15:12:14.176Z,11.20
2022-11-13T15:13:36.125Z,11.20
2022-11-13T15:14:58.057Z,11.20
2022-11-13T15:16:26.185Z,11.20
2022-11-13T15:17:54.122Z,11.30
2022-11-13T15:19:20.376Z,11.30
2022-11-13T15:20:43.658Z,11.20
2022-11-13T15:22:25.781Z,11.30
2022-11-13T15:23:48.235Z,11.30
2022-11-13T15:25:15.601Z,11.30
2022-11-13T15:26:37.401Z,11.20
2022-11-13T15:27:59.483Z,11.20
2022-11-13T15:29:22.193Z,11.30
2022-11-13T15:30:44.796Z,11.30
2022-11-13T15:32:12.734Z,11.20
2022-11-13T15:33:34.953Z,11.30
2022-11-13T15:34:57.458Z,11.30
2022-11-13T15:36:19.730Z,11.30
2022-11-13T15:37:42.003Z,11.30
2022-11-13T15:39:06.662Z,11.30
2022-11-13T15:40:29.910Z,11.30
2022-11-13T15:41:52.038Z,11.20
2022-11-13T15:43:21.365Z,11.30
2022-11-13T15:44:43.408Z,11.20
2022-11-13T15:46:06.258Z,11.10
2022-11-13T15:47:32.331Z,11.10
2022-11-13T15:48:56.005Z,11.10
2022-11-13T15:50:18.327Z,11.10
2022-11-13T15:51:45.989Z,11.10
2022-11-13T15:53:10.122Z,11.10
2022-11-13T15:54:35.742Z,11.10
2022-11-13T15:56:02.930Z,11.10
2022-11-13T15:57:27.405Z,11.10
2022-11-13T15:58:49.609Z,11.10
2022-11-13T16:00:16.280Z,11.20
2022-11-13T16:01:38.893Z,10.20
2022-11-13T16:03:11.487Z,11.20
2022-11-13T16:04:55.030Z,11.20
2022-11-13T16:06:21.643Z,11.20
2022-11-13T16:07:43.775Z,11.20
2022-11-13T16:09:07.300Z,11.20
2022-11-13T16:10:29.596Z,11.20
2022-11-13T16:11:51.577Z,12.00
2022-11-13T16:13:13.544Z,11.10
2022-11-13T16:14:35.821Z,11.10
2022-11-13T16:15:59.132Z,11.10
2022-11-13T16:17:21.720Z,11.10
2022-11-13T16:18:45.450Z,11.10
2022-11-13T16:20:11.414Z,11.10
2022-11-13T16:21:33.687Z,11.10
2022-11-13T16:22:56.063Z,11.10
2022-11-13T16:24:22.713Z,11.10
2022-11-13T16:25:49.468Z,11.00
2022-11-13T16:27:17.585Z,11.10
2022-11-13T16:28:59.792Z,11.10
2022-11-13T16:30:24.886Z,11.10
2022-11-13T16:31:47.707Z,11.10
2022-11-13T16:33:10.838Z,11.00
2022-11-13T16:34:33.977Z,11.10
2022-11-13T16:35:55.844Z,11.10
2022-11-13T16:37:20.721Z,10.20
2022-11-13T16:38:43.210Z,11.00
2022-11-13T16:40:11.726Z,11.10
2022-11-13T16:41:34.260Z,11.00
2022-11-13T16:42:57.262Z,11.00
2022-11-13T16:44:19.433Z,11.00
2022-11-13T16:45:41.902Z,11.60
2022-11-13T16:47:04.128Z,10.90
2022-11-13T16:48:28.554Z,10.90
2022-11-13T16:49:53.115Z,10.90
2022-11-13T16:51:40.778Z,10.80
2022-11-13T16:53:06.183Z,10.90
2022-11-13T16:54:29.386Z,10.90
2022-11-13T16:55:51.224Z,10.80
2022-11-13T16:57:14.485Z,10.80
2022-11-13T16:58:36.483Z,9.60
2022-11-13T16:59:58.666Z,10.80
2022-11-13T17:01:22.757Z,10.80
2022-11-13T17:02:44.754Z,10.80
2022-11-13T17:04:07.086Z,10.80
2022-11-13T17:05:30.659Z,10.80
2022-11-13T17:06:56.566Z,10.70
2022-11-13T17:08:22.014Z,10.70
2022-11-13T17:09:45.551Z,10.70
2022-11-13T17:11:07.849Z,10.80
2022-11-13T17:12:29.883Z,10.80
2022-11-13T17:13:53.294Z,10.80
2022-11-13T17:15:15.985Z,10.80
2022-11-13T17:16:39.374Z,10.80
2022-11-13T17:18:14.697Z,9.60
2022-11-13T17:19:40.816Z,10.70
2022-11-13T17:21:04.252Z,10.70
2022-11-13T17:22:26.859Z,10.70
2022-11-13T17:23:48.918Z,11.60
2022-11-13T17:25:11.668Z,10.60
2022-11-13T17:26:33.635Z,10.60
2022-11-13T17:27:56.647Z,10.60
2022-11-13T17:29:19.490Z,10.50
2022-11-13T17:30:41.844Z,10.50
2022-11-13T17:32:04.432Z,10.60
2022-11-13T17:33:27.068Z,10.40
2022-11-13T17:34:49.803Z,10.40
2022-11-13T17:36:13.161Z,10.40
2022-11-13T17:37:35.629Z,10.40
2022-11-13T17:38:58.253Z,9.30
2022-11-13T17:40:23.709Z,10.30
2022-11-13T17:41:50.154Z,10.30
2022-11-13T17:43:15.066Z,10.20
2022-11-13T17:44:41.011Z,10.20
2022-11-13T17:46:04.450Z,10.20
2022-11-13T17:47:27.629Z,8.70
2022-11-13T17:48:49.440Z,10.20
2022-11-13T17:50:12.643Z,10.20
2022-11-13T17:51:36.335Z,10.20
2022-11-13T17:52:58.662Z,10.20
2022-11-13T17:54:20.803Z,10.30
2022-11-13T17:55:53.612Z,10.30
2022-11-13T17:57:16.709Z,10.30
2022-11-13T17:58:42.515Z,11.00
2022-11-13T18:00:05.532Z,10.30
2022-11-13T18:01:28.213Z,10.20
2022-11-13T18:02:50.557Z,10.30
2022-11-13T18:04:12.548Z,10.30
2022-11-13T18:05:40.530Z,9.70
2022-11-13T18:07:04.928Z,10.30
2022-11-13T18:08:27.627Z,10.20
2022-11-13T18:09:49.897Z,10.30
2022-11-13T18:11:16.048Z,10.20
2022-11-13T18:12:38.531Z,10.30
2022-11-13T18:14:00.906Z,10.20
2022-11-13T18:15:23.039Z,10.20
2022-11-13T18:16:44.819Z,10.10
2022-11-13T18:18:08.742Z,10.10
2022-11-13T18:19:31.089Z,10.10
2022-11-13T18:20:53.270Z,10.10
2022-11-13T18:22:17.046Z,10.30
2022-11-13T18:23:39.371Z,10.10
2022-11-13T18:25:03.573Z,10.10
2022-11-13T18:26:26.617Z,10.10
2022-11-13T18:27:49.032Z,10.10
2022-11-13T18:29:15.006Z,10.10
2022-11-13T18:30:39.743Z,10.10
2022-11-13T18:32:04.982Z,10.10
2022-11-13T18:33:29.277Z,10.20